ADDS METAR Data INFO
IDs: Format: Raw Decoded Include TAF

Data at: 1612 UTC 14 Aug 2018

KSOA 141555Z AUTO 18010KT 9SM OVC013 24/21 A3005 RMK AO2
KSOA 141535Z AUTO 17009KT 9SM OVC012 24/21 A3005 RMK AO2
KSOA 141515Z AUTO 18010KT 9SM OVC012 24/21 A3005 RMK AO2
KSOA 141455Z AUTO 19009KT 9SM OVC012 24/21 A3005 RMK AO2
KSOA 141435Z AUTO 17012KT 10SM OVC012 23/21 A3005 RMK AO2
KSOA 141415Z AUTO 17010KT 9SM OVC012 23/21 A3005 RMK AO2
KSOA 141355Z AUTO 17012KT 10SM OVC012 23/21 A3004 RMK AO2
KSOA 141335Z AUTO 16009KT 9SM OVC012 23/21 A3004 RMK AO2
KSOA 141315Z AUTO 17006KT 9SM OVC014 23/21 A3003 RMK AO2
KSOA 141255Z AUTO 16008KT 9SM BKN014 BKN019 23/21 A3003 RMK AO2
KSOA 141235Z AUTO 16007KT 9SM SCT014 23/21 A3003 RMK AO2
KSOA 141215Z AUTO 17007KT 10SM CLR 23/21 A3002 RMK AO2
KSOA 141155Z AUTO 16007KT 10SM CLR 23/21 A3002 RMK AO2
KSOA 141135Z AUTO 16008KT 10SM FEW015 23/21 A3001 RMK AO2
KSOA 141115Z AUTO 17007KT 10SM SCT015 23/21 A3001 RMK AO2
KSOA 141055Z AUTO 17006KT 10SM FEW015 23/21 A3001 RMK AO2
KSOA 141035Z AUTO 16007KT 10SM CLR 23/21 A3001 RMK AO2
KSOA 141015Z AUTO 17004KT 10SM CLR 23/22 A3001 RMK AO2
KSOA 140955Z AUTO 00000KT 10SM CLR 23/21 A3001 RMK AO2
KSOA 140935Z AUTO 00000KT 10SM CLR 23/21 A3002 RMK AO2
KSOA 140915Z AUTO 00000KT 10SM FEW016 23/21 A3002 RMK AO2
KSOA 140855Z AUTO 00000KT 10SM CLR 23/21 A3002 RMK AO2
KSOA 140835Z AUTO 00000KT 10SM CLR 22/21 A3002 RMK AO2
KSOA 140815Z AUTO 00000KT 10SM CLR 23/21 A3002 RMK AO2
KSOA 140755Z AUTO 00000KT 10SM CLR 23/21 A3002 RMK AO2
KSOA 140735Z AUTO 00000KT 10SM CLR 23/21 A3002 RMK AO2
KSOA 140715Z AUTO 00000KT 10SM CLR 23/21 A3003 RMK AO2
KSOA 140655Z AUTO 00000KT 10SM CLR 23/21 A3003 RMK AO2
KSOA 140635Z AUTO 00000KT 10SM CLR 23/21 A3003 RMK AO2
KSOA 140615Z AUTO 00000KT 10SM CLR 23/21 A3004 RMK AO2
KSOA 140555Z AUTO 00000KT 10SM CLR 23/21 A3003 RMK AO2
KSOA 140535Z AUTO 00000KT 10SM CLR 23/21 A3003 RMK AO2
KSOA 140515Z AUTO 00000KT 10SM CLR 23/21 A3003 RMK AO2
KSOA 140455Z AUTO 00000KT 10SM CLR 23/21 A3003 RMK AO2
KSOA 140435Z AUTO 00000KT 10SM CLR 24/21 A3003 RMK AO2
KSOA 140415Z AUTO 00000KT 10SM CLR 24/21 A3002 RMK AO2
KSOA 140355Z AUTO 00000KT 10SM CLR 24/21 A3002 RMK AO2
KSOA 140335Z AUTO 00000KT 10SM CLR 24/21 A3001 RMK AO2
KSOA 140315Z AUTO 00000KT 10SM CLR 25/21 A3000 RMK AO2
KSOA 140255Z AUTO 00000KT 10SM CLR 25/21 A3000 RMK AO2
KSOA 140235Z AUTO 00000KT 10SM CLR 25/21 A3000 RMK AO2 LTG DSNT SW
KSOA 140215Z AUTO 00000KT 10SM CLR 25/21 A3001 RMK AO2
KSOA 140155Z AUTO 16004KT 10SM CLR 26/21 A3001 RMK AO2
KSOA 140135Z AUTO 16005KT 10SM CLR 26/21 A3001 RMK AO2
KSOA 140115Z AUTO 16006KT 10SM CLR 26/21 A3001 RMK AO2
KSOA 140055Z AUTO 17005KT 10SM CLR 26/21 A3001 RMK AO2
KSOA 140035Z AUTO 17009KT 10SM CLR 26/21 A3002 RMK AO2
KSOA 140015Z AUTO 17010KT 10SM FEW028 26/22 A3002 RMK AO2 LTG DSNT NE AND W
KSOA 132355Z AUTO 17009KT 10SM FEW003 SCT028 SCT037 26/22 A3002 RMK AO2 LTG DSNT NE
KSOA 132335Z AUTO 16012KT 10SM FEW032 FEW041 FEW055 27/21 A3002 RMK AO2 LTG DSNT NE
KSOA 132315Z AUTO 17010G16KT 10SM SCT032 SCT041 SCT080 27/21 A3002 RMK AO2 LTG DSNT NE
KSOA 132255Z AUTO 17011KT 10SM FEW032 28/21 A3002 RMK AO2
KSOA 132235Z AUTO 17010G17KT 10SM FEW031 FEW050 FEW070 28/21 A3001 RMK AO2 LTG DSNT N
KSOA 132215Z AUTO 16011KT 10SM FEW031 FEW044 BKN050 27/20 A3001 RMK AO2
KSOA 132155Z AUTO 18010KT 10SM FEW030 SCT044 BKN055 28/21 A3001 RMK AO2 LTG DSNT NE
KSOA 132135Z AUTO 17010KT 10SM SCT030 SCT038 SCT043 28/21 A3001 RMK AO2
KSOA 132115Z AUTO 15013KT 10SM SCT030 SCT040 BKN065 28/20 A3002 RMK AO2 LTG DSNT SW
KSOA 132055Z AUTO 16012KT 140V200 10SM SCT028 SCT038 BKN110 28/21 A3003 RMK AO2 LTG DSNT N AND SW
KSOA 132035Z AUTO 16011KT 10SM FEW020 SCT030 BKN045 27/21 A3003 RMK AO2
KSOA 132015Z AUTO 18011KT 10SM BKN019 BKN028 BKN036 26/22 A3004 RMK AO2 LTG DSNT SW AND W
KSOA 131955Z AUTO 18010KT 10SM SCT015 BKN023 BKN039 26/22 A3005 RMK AO2
KSOA 131935Z AUTO 16008G14KT 10SM BKN014 BKN024 OVC047 25/21 A3006 RMK AO2
KSOA 131915Z AUTO 15010KT 10SM BKN012 BKN020 OVC032 24/22 A3007 RMK AO2
KSOA 131855Z AUTO 16009G15KT 10SM BKN012 BKN029 OVC070 24/21 A3008 RMK AO2
KSOA 131835Z AUTO 16010G15KT 10SM SCT016 BKN029 BKN046 24/21 A3009 RMK AO2 LTG DSNT NE AND S
KSOA 131815Z AUTO 17013KT 10SM BKN018 OVC026 24/22 A3009 RMK AO2
KSOA 131755Z AUTO 17011KT 9SM -RA BKN020 BKN026 OVC030 24/21 A3009 RMK AO2 LTG DSNT NE AND S
KSOA 131735Z AUTO 17010KT 10SM BKN020 OVC029 25/21 A3009 RMK AO2
KSOA 131715Z AUTO 19007KT 10SM SCT018 BKN025 BKN029 25/21 A3010 RMK AO2
KSOA 131655Z AUTO 18007KT 10SM BKN019 BKN025 BKN038 25/21 A3010 RMK AO2
KSOA 131635Z AUTO 18008KT 10SM FEW016 BKN021 BKN048 25/21 A3010 RMK AO2
KSOA 131615Z AUTO 17010KT 10SM 24/21 A3010 RMK AO2
KSOA 131555Z AUTO 17007KT 10SM 24/20 A3010 RMK AO2
KSOA 131535Z AUTO 17008KT 10SM FEW015 BKN043 24/21 A3009 RMK AO2
KSOA 131515Z AUTO 00000G10KT 10SM BKN015 BKN043 23/21 A3009 RMK AO2
KSOA 131455Z AUTO 16006KT 10SM OVC014 23/21 A3010 RMK AO2
KSOA 131435Z AUTO 17007KT 10SM OVC012 23/21 A3010 RMK AO2
KSOA 131415Z AUTO 16003KT 9SM OVC011 22/21 A3009 RMK AO2
KSOA 131355Z AUTO 00000KT 10SM OVC010 22/21 A3009 RMK AO2
KSOA 131335Z AUTO 00000KT 10SM OVC009 22/21 A3009 RMK AO2
KSOA 131315Z AUTO 00000KT 10SM OVC009 22/21 A3009 RMK AO2
KSOA 131255Z AUTO 00000KT 10SM OVC010 22/21 A3009 RMK AO2
KSOA 131235Z AUTO 18005KT 10SM OVC010 22/21 A3009 RMK AO2
KSOA 131215Z AUTO 17007KT 10SM OVC010 22/21 A3008 RMK AO2
KSOA 131155Z AUTO 17005KT 10SM OVC011 22/21 A3008 RMK AO2
KSOA 131135Z AUTO 00000KT 10SM OVC011 22/21 A3007 RMK AO2
KSOA 131115Z AUTO 17003KT 10SM OVC011 22/21 A3007 RMK AO2 LTG DSNT N
KSOA 131055Z AUTO 17004KT 10SM 22/21 A3007 RMK AO2
KSOA 131035Z AUTO 00000KT 10SM 22/22 A3007 RMK AO2
KSOA 131015Z AUTO 00000KT 10SM OVC012 22/22 A3007 RMK AO2
KSOA 130955Z AUTO 00000KT 10SM SCT013 22/22 A3007 RMK AO2
KSOA 130935Z AUTO 00000KT 10SM BKN011 22/22 A3007 RMK AO2
KSOA 130915Z AUTO 00000KT 10SM BKN012 OVC038 22/21 A3008 RMK AO2
KSOA 130855Z AUTO 18006KT 10SM BKN012 BKN041 22/21 A3008 RMK AO2
KSOA 130835Z AUTO 16006KT 10SM OVC012 22/22 A3008 RMK AO2
KSOA 130815Z AUTO 15007KT 10SM OVC012 22/22 A3009 RMK AO2
KSOA 130755Z AUTO 15004KT 10SM OVC012 22/22 A3009 RMK AO2
KSOA 130735Z AUTO 00000KT 10SM OVC013 22/22 A3009 RMK AO2
KSOA 130715Z AUTO 00000KT 10SM BKN014 BKN020 BKN049 22/22 A3010 RMK AO2
KSOA 130655Z AUTO 00000KT 10SM FEW013 SCT039 BKN048 23/23 A3010 RMK AO2 LTG DSNT NE
KSOA 130635Z AUTO 00000KT 10SM BKN013 OVC038 23/23 A3009 RMK AO2
KSOA 130615Z AUTO 00000KT 10SM OVC014 23/23 A3010 RMK AO2
KSOA 130555Z AUTO 00000KT 10SM BKN017 OVC022 23/23 A3010 RMK AO2
KSOA 130535Z AUTO 00000KT 10SM BKN021 BKN032 BKN043 23/23 A3010 RMK AO2
KSOA 130515Z AUTO 00000KT 10SM FEW025 SCT035 SCT043 23/23 A3010 RMK AO2
KSOA 130455Z AUTO 00000KT 8SM SCT002 BKN022 BKN027 23/23 A3010 RMK AO2
KSOA 130435Z AUTO 00000KT 2SM +RA SCT003 SCT018 BKN029 23/23 A3011 RMK AO2
KSOA 130415Z AUTO 00000KT 9SM -RA FEW048 23/23 A3010 RMK AO2